createdAt,value
2022-12-16T00:04:47.488Z,10.73
2022-12-16T00:14:52.213Z,9.30
2022-12-16T00:19:54.308Z,10.00
2022-12-16T00:24:57.898Z,9.37
2022-12-16T00:30:00.246Z,9.13
2022-12-16T00:35:02.428Z,9.83
2022-12-16T00:40:05.140Z,9.03
2022-12-16T00:45:07.734Z,10.93
2022-12-16T00:50:11.306Z,10.80
2022-12-16T00:55:14.236Z,8.97
2022-12-16T01:00:18.273Z,8.23
2022-12-16T01:05:26.609Z,9.73
2022-12-16T01:10:28.770Z,9.17
2022-12-16T01:15:30.917Z,9.10
2022-12-16T01:20:34.337Z,9.93
2022-12-16T01:25:36.545Z,9.83
2022-12-16T01:30:38.584Z,10.27
2022-12-16T01:40:59.167Z,7.57
2022-12-16T01:46:20.537Z,8.97
2022-12-16T01:51:25.548Z,9.03
2022-12-16T01:56:31.684Z,10.13
2022-12-16T02:01:34.619Z,8.67
2022-12-16T02:06:37.016Z,8.10
2022-12-16T02:11:54.635Z,7.53
2022-12-16T02:17:05.079Z,7.57
2022-12-16T02:22:17.029Z,7.33
2022-12-16T02:27:37.938Z,8.85
2022-12-16T02:33:02.836Z,7.33
2022-12-16T02:38:14.467Z,8.27
2022-12-16T02:43:51.644Z,9.20
2022-12-16T02:48:54.894Z,8.20
2022-12-16T02:53:57.369Z,8.67
2022-12-16T02:59:35.315Z,7.50
2022-12-16T03:05:05.860Z,8.13
2022-12-16T03:10:14.750Z,7.23
2022-12-16T03:15:21.408Z,7.03
2022-12-16T03:20:41.852Z,6.43
2022-12-16T03:25:47.370Z,7.20
2022-12-16T03:30:56.780Z,6.67
2022-12-16T03:36:14.943Z,6.53
2022-12-16T03:41:20.621Z,6.73
2022-12-16T03:46:23.259Z,5.93
2022-12-16T03:51:25.788Z,7.97
2022-12-16T03:56:28.312Z,6.27
2022-12-16T04:01:30.616Z,6.73
2022-12-16T04:06:33.153Z,6.67
2022-12-16T04:11:54.489Z,6.60
2022-12-16T04:17:16.398Z,5.30
2022-12-16T04:22:41.013Z,5.77
2022-12-16T04:27:49.353Z,6.30
2022-12-16T04:33:17.756Z,6.83
2022-12-16T04:38:38.371Z,5.97
2022-12-16T04:43:59.362Z,5.27
2022-12-16T04:49:20.372Z,5.60
2022-12-16T04:54:41.122Z,6.37
2022-12-16T05:00:02.019Z,6.00
2022-12-16T05:05:22.923Z,5.23
2022-12-16T05:10:44.096Z,5.20
2022-12-16T05:16:05.313Z,5.33
2022-12-16T05:21:26.243Z,6.90
2022-12-16T05:26:46.840Z,5.30
2022-12-16T05:32:07.733Z,5.67
2022-12-16T05:37:28.464Z,5.07
2022-12-16T05:42:48.893Z,6.17
2022-12-16T05:48:09.551Z,5.87
2022-12-16T05:53:30.879Z,5.57
2022-12-16T05:58:52.018Z,7.33
2022-12-16T06:04:17.323Z,5.43
2022-12-16T06:09:38.932Z,6.70
2022-12-16T06:14:59.794Z,5.80
2022-12-16T06:20:20.552Z,6.30
2022-12-16T06:25:41.401Z,5.70
2022-12-16T06:31:01.963Z,6.67
2022-12-16T06:36:22.926Z,4.73
2022-12-16T06:41:43.889Z,6.63
2022-12-16T06:47:04.650Z,6.93
2022-12-16T06:52:26.061Z,5.67
2022-12-16T06:57:46.620Z,5.83
2022-12-16T07:03:07.862Z,5.40
2022-12-16T07:08:28.744Z,6.17
2022-12-16T07:13:49.395Z,5.93
2022-12-16T07:19:10.820Z,5.83
2022-12-16T07:24:31.648Z,6.23
2022-12-16T07:29:52.360Z,5.80
2022-12-16T07:35:13.375Z,7.03
2022-12-16T07:40:34.104Z,5.70
2022-12-16T07:45:54.952Z,6.27
2022-12-16T07:51:15.934Z,7.23
2022-12-16T07:56:36.731Z,5.53
2022-12-16T08:01:57.519Z,6.33
2022-12-16T08:07:18.354Z,5.37
2022-12-16T08:12:39.085Z,5.47
2022-12-16T08:18:08.432Z,5.63
2022-12-16T08:23:29.365Z,5.23
2022-12-16T08:28:50.756Z,5.83
2022-12-16T08:34:11.513Z,5.73
2022-12-16T08:39:32.041Z,5.83
2022-12-16T08:44:52.933Z,5.73
2022-12-16T08:50:13.714Z,4.83
2022-12-16T08:55:34.561Z,4.73
2022-12-16T09:00:55.397Z,4.27
2022-12-16T09:06:20.186Z,5.13
2022-12-16T09:11:40.772Z,5.07
2022-12-16T09:17:01.426Z,4.60
2022-12-16T09:22:22.243Z,5.37
2022-12-16T09:27:43.100Z,5.27
2022-12-16T09:33:04.459Z,5.97
2022-12-16T09:38:25.261Z,5.03
2022-12-16T09:44:13.679Z,4.73
2022-12-16T09:50:02.175Z,5.33
2022-12-16T09:55:26.426Z,5.37
2022-12-16T10:00:48.336Z,5.13
2022-12-16T10:06:49.619Z,4.20
2022-12-16T10:12:32.062Z,4.97
2022-12-16T10:17:56.898Z,5.40
2022-12-16T10:23:44.041Z,6.13
2022-12-16T10:29:07.247Z,4.83
2022-12-16T10:34:33.697Z,5.23
2022-12-16T10:40:02.288Z,4.27
2022-12-16T10:45:24.347Z,4.60
2022-12-16T10:50:45.223Z,6.30
2022-12-16T10:56:26.979Z,5.13
2022-12-16T11:01:47.889Z,5.40
2022-12-16T11:07:08.974Z,4.77
2022-12-16T11:12:38.435Z,5.00
2022-12-16T11:17:59.206Z,4.63
2022-12-16T11:23:34.283Z,5.87
2022-12-16T11:29:02.745Z,4.03
2022-12-16T11:34:24.013Z,5.53
2022-12-16T11:39:47.680Z,5.60
2022-12-16T11:45:17.296Z,6.40
2022-12-16T11:50:39.207Z,5.45
2022-12-16T11:56:10.817Z,4.65
2022-12-16T12:01:45.180Z,4.95
2022-12-16T12:07:31.223Z,4.65
2022-12-16T12:13:06.479Z,5.20
2022-12-16T12:18:46.208Z,5.40
2022-12-16T12:24:31.194Z,4.63
2022-12-16T12:30:18.218Z,4.90
2022-12-16T12:35:47.759Z,4.15
2022-12-16T12:41:24.508Z,4.30
2022-12-16T12:46:54.562Z,4.85
2022-12-16T12:52:56.871Z,5.20
2022-12-16T12:58:18.713Z,5.13
2022-12-16T13:04:04.083Z,4.97
2022-12-16T13:09:56.981Z,5.70
2022-12-16T13:15:22.238Z,5.17
2022-12-16T13:20:51.919Z,5.83
2022-12-16T13:26:12.803Z,4.87
2022-12-16T13:31:33.670Z,5.20
2022-12-16T13:37:11.891Z,5.80
2022-12-16T13:42:51.155Z,5.60
2022-12-16T13:48:11.924Z,5.43
2022-12-16T13:53:36.381Z,6.27
2022-12-16T13:58:57.750Z,6.40
2022-12-16T14:04:19.213Z,5.57
2022-12-16T14:09:53.551Z,5.43
2022-12-16T14:15:24.064Z,7.40
2022-12-16T14:20:53.230Z,5.93
2022-12-16T14:26:18.098Z,6.55
2022-12-16T14:31:50.649Z,6.30
2022-12-16T14:37:13.686Z,6.50
2022-12-16T14:42:43.590Z,6.20
2022-12-16T14:48:04.349Z,6.35
2022-12-16T14:53:32.333Z,5.60
2022-12-16T14:58:53.519Z,11.53
2022-12-16T15:04:15.035Z,7.43
2022-12-16T15:09:50.681Z,6.13
2022-12-16T15:15:14.064Z,8.57
2022-12-16T15:20:44.933Z,5.62
2022-12-16T15:26:13.983Z,5.67
2022-12-16T15:31:44.340Z,5.07
2022-12-16T15:37:05.172Z,5.27
2022-12-16T15:42:43.657Z,4.83
2022-12-16T15:48:09.208Z,4.77
2022-12-16T15:53:50.408Z,4.67
2022-12-16T15:59:51.504Z,4.90
2022-12-16T16:05:12.373Z,4.90
2022-12-16T16:10:40.483Z,3.83
2022-12-16T16:16:01.212Z,6.00
2022-12-16T16:21:22.088Z,5.23
2022-12-16T16:26:46.220Z,5.97
2022-12-16T16:32:07.161Z,4.33
2022-12-16T16:37:33.713Z,4.97
2022-12-16T16:42:54.288Z,5.30
2022-12-16T16:48:27.971Z,5.90
2022-12-16T16:53:48.791Z,5.97
2022-12-16T16:59:09.808Z,5.77
2022-12-16T17:04:30.578Z,5.80
2022-12-16T17:09:51.578Z,6.67
2022-12-16T17:15:12.464Z,5.73
2022-12-16T17:20:34.938Z,5.63
2022-12-16T17:25:55.734Z,6.82
2022-12-16T17:31:17.733Z,6.80
2022-12-16T17:36:38.600Z,6.13
2022-12-16T17:41:59.140Z,6.80
2022-12-16T17:47:20.003Z,6.67
2022-12-16T17:52:40.603Z,6.63
2022-12-16T17:58:01.356Z,8.27
2022-12-16T18:03:22.752Z,5.80
2022-12-16T18:08:43.579Z,5.97
2022-12-16T18:14:04.087Z,5.93
2022-12-16T18:19:24.974Z,6.27
2022-12-16T18:24:48.561Z,6.97
2022-12-16T18:30:10.153Z,6.47
2022-12-16T18:35:31.172Z,5.57
2022-12-16T18:40:52.000Z,6.80
2022-12-16T18:46:13.471Z,7.30
2022-12-16T18:51:34.287Z,7.37
2022-12-16T18:56:54.841Z,6.33
2022-12-16T19:02:15.741Z,7.33
2022-12-16T19:07:36.554Z,7.27
2022-12-16T19:12:57.503Z,8.30
2022-12-16T19:18:18.253Z,6.27
2022-12-16T19:23:39.066Z,6.77
2022-12-16T19:29:00.198Z,6.90
2022-12-16T19:34:21.023Z,6.87
2022-12-16T19:39:41.619Z,6.33
2022-12-16T19:45:02.249Z,6.80
2022-12-16T19:50:23.533Z,6.40
2022-12-16T19:55:44.522Z,7.20
2022-12-16T20:01:05.619Z,6.50
2022-12-16T20:06:28.032Z,7.43
2022-12-16T20:11:48.866Z,8.90
2022-12-16T20:17:09.674Z,7.00
2022-12-16T20:22:30.595Z,8.37
2022-12-16T20:27:51.606Z,8.20
2022-12-16T20:33:12.425Z,6.73
2022-12-16T20:38:33.188Z,8.13
2022-12-16T20:43:54.255Z,7.97
2022-12-16T20:49:17.013Z,8.00
2022-12-16T20:54:37.944Z,9.43
2022-12-16T20:59:58.823Z,8.77
2022-12-16T21:05:20.555Z,8.47
2022-12-16T21:10:41.418Z,8.40
2022-12-16T21:16:01.857Z,7.87
2022-12-16T21:21:22.761Z,6.63
2022-12-16T21:26:44.039Z,7.17
2022-12-16T21:32:05.021Z,6.93
2022-12-16T21:37:37.068Z,6.70
2022-12-16T21:42:57.776Z,8.53
2022-12-16T21:48:18.532Z,7.73
2022-12-16T21:53:39.523Z,7.60
2022-12-16T21:59:03.333Z,5.73
2022-12-16T22:04:24.183Z,6.83
2022-12-16T22:09:44.760Z,7.17
2022-12-16T22:15:05.583Z,7.27
2022-12-16T22:20:27.233Z,8.87
2022-12-16T22:25:48.132Z,7.60
2022-12-16T22:31:15.867Z,7.77
2022-12-16T22:36:36.838Z,6.73
2022-12-16T22:41:57.721Z,7.67
2022-12-16T22:47:20.328Z,6.57
2022-12-16T22:52:41.212Z,7.07
2022-12-16T22:58:02.181Z,6.23
2022-12-16T23:03:22.994Z,7.10
2022-12-16T23:08:43.888Z,6.53
2022-12-16T23:14:04.396Z,7.30
2022-12-16T23:19:25.135Z,9.13
2022-12-16T23:24:45.688Z,7.27
2022-12-16T23:30:06.478Z,7.77
2022-12-16T23:35:27.290Z,7.10
2022-12-16T23:40:48.122Z,8.93
2022-12-16T23:46:08.697Z,7.13
2022-12-16T23:51:30.535Z,7.83
2022-12-16T23:56:51.760Z,8.00
